Time;durP1;ratioP1;P1;durP2;ratioP2;P2;SDS_P1;SDS_P2;PMS_P1;PMS_P2;Temp;Humidity;BMP_temperature;BMP_pressure;BME280_temperature;BME280_humidity;BME280_pressure;Samples;Min_cycle;Max_cycle;Signal;HPM_P1;HPM_P2
2022/08/23 00:01:00;;;;;;;1.33;1.23;;;;;;;19.88;63.25;96747.41;10417351;28;20497;-51
2022/08/23 00:06:21;;;;;;;1.45;1.30;;;;;;;19.87;63.29;96749.31;10430836;28;20500;-48
2022/08/23 00:11:44;;;;;;;1.67;1.58;;;;;;;19.87;63.25;96749.31;10417913;28;20068;-50
2022/08/23 00:17:05;;;;;;;1.50;1.40;;;;;;;19.87;63.21;96748.53;10414586;28;20045;-48
2022/08/23 00:22:24;;;;;;;1.50;1.40;;;;;;;19.86;63.25;96755.84;10409530;28;20054;-49
2022/08/23 00:27:43;;;;;;;2.42;1.35;;;;;;;19.88;63.25;96745.50;10416599;28;20045;-50
2022/08/23 00:33:03;;;;;;;1.50;1.40;;;;;;;19.87;63.21;96738.50;10416293;28;20041;-46
2022/08/23 00:38:23;;;;;;;1.55;1.23;;;;;;;19.88;63.22;96737.38;10416009;28;20045;-47
2022/08/23 00:49:21;;;;;;;3.83;1.90;;;;;;;19.82;63.01;96729.81;10407444;28;20064;-49
2022/08/23 00:54:41;;;;;;;2.13;1.70;;;;;;;19.83;63.11;96732.16;10407108;28;20065;-49
2022/08/23 01:00:02;;;;;;;2.00;1.50;;;;;;;19.84;63.15;96728.34;10401967;28;20562;-48
2022/08/23 01:05:27;;;;;;;4.32;1.75;;;;;;;19.85;63.23;96727.22;10415561;28;20045;-50
2022/08/23 01:10:52;;;;;;;2.85;1.33;;;;;;;19.82;63.19;96725.19;10415329;28;20751;-47
2022/08/23 01:16:18;;;;;;;1.45;1.35;;;;;;;19.84;63.23;96728.34;10414643;28;20065;-49
2022/08/23 01:22:04;;;;;;;1.20;1.10;;;;;;;19.84;63.25;96728.34;10387103;28;20053;-47
2022/08/23 01:27:24;;;;;;;2.45;1.50;;;;;;;19.86;63.23;96728.03;10400064;28;20050;-47
2022/08/23 01:32:47;;;;;;;2.50;1.60;;;;;;;19.84;63.29;96725.66;10412980;28;20481;-47
2022/08/23 01:38:07;;;;;;;3.80;1.55;;;;;;;19.84;63.30;96722.94;10411386;28;20041;-47
2022/08/23 01:43:27;;;;;;;2.10;1.33;;;;;;;19.84;63.27;96719.47;10399573;28;20049;-49
2022/08/23 01:48:49;;;;;;;3.28;1.40;;;;;;;19.85;63.31;96718.31;10399094;28;20057;-49
2022/08/23 01:54:09;;;;;;;1.75;1.45;;;;;;;19.84;63.32;96712.13;10399483;28;20057;-50
2022/08/23 01:59:28;;;;;;;1.55;1.40;;;;;;;19.84;63.29;96722.94;10387022;28;20046;-49
2022/08/23 02:04:48;;;;;;;1.50;1.40;;;;;;;19.85;63.32;96713.69;10412069;28;20041;-49
2022/08/23 02:10:08;;;;;;;2.45;1.40;;;;;;;19.85;63.29;96718.31;10435868;28;20041;-47
2022/08/23 02:15:29;;;;;;;2.75;1.45;;;;;;;19.84;63.33;96720.25;10407095;28;20088;-48
2022/08/23 02:20:50;;;;;;;1.38;1.27;;;;;;;19.84;63.27;96714.06;10422113;28;20041;-48
2022/08/23 02:26:09;;;;;;;1.92;1.60;;;;;;;19.84;63.17;96717.53;10406990;28;20060;-48
2022/08/23 02:31:28;;;;;;;1.75;1.30;;;;;;;19.85;63.27;96721.03;10406684;28;20049;-48
2022/08/23 02:36:48;;;;;;;1.80;1.60;;;;;;;19.85;63.35;96721.03;10393836;28;20049;-49
2022/08/23 02:42:08;;;;;;;2.17;1.40;;;;;;;19.85;63.37;96719.09;10420554;28;20385;-48
2022/08/23 02:47:28;;;;;;;1.30;1.23;;;;;;;19.84;63.26;96728.34;10419427;28;20045;-47
2022/08/23 02:53:01;;;;;;;1.80;1.40;;;;;;;19.85;63.30;96723.72;10405240;28;20057;-49
2022/08/23 02:58:21;;;;;;;1.40;1.30;;;;;;;19.84;63.35;96724.88;10405541;28;20068;-49
2022/08/23 03:03:41;;;;;;;2.35;1.30;;;;;;;19.84;63.22;96724.88;10420239;28;20131;-47
2022/08/23 03:09:02;;;;;;;2.58;1.20;;;;;;;19.83;63.27;96729.47;10405459;28;20056;-48
2022/08/23 03:14:24;;;;;;;2.60;1.20;;;;;;;19.83;63.40;96729.47;10409195;28;20491;-48
2022/08/23 03:19:44;;;;;;;2.10;1.30;;;;;;;19.83;63.27;96729.47;10404580;28;20057;-48
2022/08/23 03:25:04;;;;;;;1.27;1.17;;;;;;;19.82;63.21;96725.19;10419754;28;20057;-47
2022/08/23 03:30:37;;;;;;;1.83;1.20;;;;;;;19.83;63.27;96729.47;10417873;28;20515;-48
2022/08/23 03:36:00;;;;;;;1.63;1.50;;;;;;;19.83;63.27;96724.06;10403683;28;20052;-47
2022/08/23 03:41:22;;;;;;;1.25;1.15;;;;;;;19.82;63.27;96730.59;10403236;28;20120;-47
2022/08/23 03:46:42;;;;;;;1.35;1.25;;;;;;;19.84;63.34;96732.97;10417814;28;20045;-47
2022/08/23 03:52:04;;;;;;;4.00;1.80;;;;;;;19.83;63.19;96729.47;10403193;28;20050;-47
2022/08/23 03:57:24;;;;;;;1.30;1.20;;;;;;;19.83;63.20;96729.47;10417377;28;20049;-47
2022/08/23 04:02:43;;;;;;;1.60;1.50;;;;;;;19.84;63.20;96735.69;10403317;28;20056;-46
2022/08/23 04:08:12;;;;;;;1.45;1.35;;;;;;;19.84;63.16;96743.78;10402928;28;20104;-49
2022/08/23 04:13:35;;;;;;;1.40;1.30;;;;;;;19.82;63.12;96749.53;10402908;28;20096;-50
2022/08/23 04:18:56;;;;;;;1.73;1.50;;;;;;;19.82;63.04;96756.84;10402470;28;20053;-48
2022/08/23 04:24:17;;;;;;;1.60;1.50;;;;;;;19.82;63.22;96752.22;10415812;28;20052;-50
2022/08/23 04:29:38;;;;;;;1.40;1.30;;;;;;;19.83;63.26;96758.41;10409634;28;20103;-47
2022/08/23 04:34:58;;;;;;;1.63;1.52;;;;;;;19.82;63.15;96744.13;10412727;28;20048;-48
2022/08/23 04:45:56;;;;;;;4.00;3.70;;;;;;;19.76;62.99;96761.63;10400988;28;20049;-48
2022/08/23 04:51:24;;;;;;;4.20;3.90;;;;;;;19.72;62.99;96766.13;10401383;28;20053;-49
2022/08/23 04:56:43;;;;;;;4.68;4.28;;;;;;;19.70;63.00;96779.13;10399402;28;20060;-47
2022/08/23 05:02:04;;;;;;;4.75;4.38;;;;;;;19.64;63.13;96778.53;10409015;28;20054;-49
2022/08/23 05:07:23;;;;;;;4.43;4.00;;;;;;;19.64;63.17;96775.00;10401073;28;20088;-47
2022/08/23 05:12:43;;;;;;;4.47;4.07;;;;;;;19.61;63.22;96778.38;10404895;28;20068;-48
2022/08/23 05:18:02;;;;;;;4.47;4.07;;;;;;;19.59;63.32;96775.97;10400713;28;20053;-48
2022/08/23 05:23:23;;;;;;;4.43;4.03;;;;;;;19.59;63.38;96777.91;10400354;28;20053;-49
2022/08/23 05:28:47;;;;;;;3.85;3.45;;;;;;;19.56;63.42;96772.03;10400045;28;20045;-47
2022/08/23 05:34:09;;;;;;;3.90;3.60;;;;;;;19.54;63.56;96787.78;10400210;28;20071;-49
2022/08/23 05:39:34;;;;;;;3.95;3.65;;;;;;;19.56;63.60;96782.03;10398968;28;20520;-48
2022/08/23 05:44:54;;;;;;;4.70;3.72;;;;;;;19.53;63.61;96778.06;10414742;28;20060;-48
2022/08/23 05:50:15;;;;;;;3.17;2.97;;;;;;;19.55;63.64;96786.66;10399696;28;20048;-47
2022/08/23 05:55:35;;;;;;;2.47;2.28;;;;;;;19.57;63.50;96783.63;10399096;28;20103;-48
2022/08/23 06:01:12;;;;;;;2.75;2.55;;;;;;;19.58;63.59;96777.09;10396528;28;20057;-48
2022/08/23 06:06:33;;;;;;;2.83;2.63;;;;;;;19.60;63.50;96790.28;10399202;28;20053;-48
2022/08/23 06:11:53;;;;;;;2.50;2.40;;;;;;;19.60;63.53;96791.09;10399380;28;20059;-49
2022/08/23 06:17:13;;;;;;;2.65;2.45;;;;;;;19.59;63.57;96788.72;10398679;28;20049;-47
2022/08/23 06:22:32;;;;;;;2.20;2.10;;;;;;;19.56;63.70;96798.25;10413309;28;20473;-48
2022/08/23 06:27:52;;;;;;;2.40;2.20;;;;;;;19.54;63.81;96795.06;10398774;28;20068;-49
2022/08/23 06:33:12;;;;;;;2.00;1.90;;;;;;;19.52;63.95;96797.31;10398197;28;20402;-50
2022/08/23 06:38:51;;;;;;;2.22;1.98;;;;;;;19.51;63.96;96807.31;10403497;28;20072;-48
2022/08/23 06:44:31;;;;;;;1.50;1.40;;;;;;;19.53;63.91;96809.72;10390635;28;20072;-49
2022/08/23 06:50:20;;;;;;;1.48;1.38;;;;;;;19.54;63.73;96817.50;10398057;28;20052;-48
2022/08/23 06:55:58;;;;;;;1.50;1.40;;;;;;;19.56;63.73;96817.16;10420829;28;20053;-48
2022/08/23 07:01:54;;;;;;;1.58;1.48;;;;;;;19.58;63.65;96827.66;10406560;28;20086;-49
2022/08/23 07:07:39;;;;;;;1.60;1.50;;;;;;;19.58;63.76;96841.94;10420607;28;20049;-49
2022/08/23 07:12:59;;;;;;;1.67;1.58;;;;;;;19.59;63.64;96842.75;10420337;28;20050;-47
2022/08/23 07:18:19;;;;;;;1.70;1.60;;;;;;;19.59;63.65;96856.28;10405117;28;20048;-49
2022/08/23 07:23:39;;;;;;;1.50;1.40;;;;;;;19.59;63.59;96858.97;10418911;28;20486;-49
2022/08/23 07:29:04;;;;;;;1.40;1.30;;;;;;;19.58;63.49;96860.84;10417654;28;20037;-48
2022/08/23 07:34:25;;;;;;;1.40;1.30;;;;;;;19.59;63.56;96861.69;10432967;28;20041;-50
2022/08/23 07:39:44;;;;;;;1.70;1.60;;;;;;;19.59;63.54;96858.97;10404098;28;20385;-49
2022/08/23 07:45:05;;;;;;;1.70;1.60;;;;;;;19.59;63.57;96862.47;10417320;28;20042;-49
2022/08/23 07:50:26;;;;;;;1.48;1.38;;;;;;;19.59;63.63;96867.88;10403796;28;20057;-47
2022/08/23 07:55:46;;;;;;;1.63;1.52;;;;;;;19.59;63.70;96877.88;10403722;28;20075;-48
2022/08/23 08:01:26;;;;;;;1.80;1.70;;;;;;;19.58;63.72;96876.28;10407991;28;20493;-48
2022/08/23 08:06:48;;;;;;;1.70;1.60;;;;;;;19.58;63.76;96881.69;10415521;28;20052;-50
2022/08/23 08:12:10;;;;;;;1.60;1.50;;;;;;;19.58;63.87;96897.91;10414171;28;20405;-48
2022/08/23 08:17:32;;;;;;;1.55;1.45;;;;;;;19.58;63.85;96900.59;10402818;28;20046;-48
2022/08/23 08:23:11;;;;;;;1.48;1.38;;;;;;;19.59;63.87;96899.50;10419389;28;20515;-49
2022/08/23 08:28:51;;;;;;;1.70;1.60;;;;;;;19.59;63.82;96904.91;10405703;28;20045;-47
2022/08/23 08:34:11;;;;;;;1.80;1.70;;;;;;;19.58;63.85;96903.31;10402155;28;20045;-47
2022/08/23 08:39:31;;;;;;;1.50;1.40;;;;;;;19.58;63.85;96908.72;10416313;28;20049;-49
2022/08/23 08:45:14;;;;;;;1.70;1.60;;;;;;;19.58;64.01;96914.91;10429703;28;20041;-48
2022/08/23 08:50:39;;;;;;;1.80;1.70;;;;;;;19.59;64.01;96918.44;10387955;28;20404;-47
2022/08/23 08:56:17;;;;;;;1.75;1.65;;;;;;;19.58;63.91;96922.22;10400294;28;20076;-47
2022/08/23 09:01:38;;;;;;;1.67;1.58;;;;;;;19.56;63.91;96917.13;10384965;28;20049;-46
2022/08/23 09:07:10;;;;;;;1.67;1.50;;;;;;;19.58;63.78;96925.72;10400663;28;20083;-47
2022/08/23 09:12:40;;;;;;;1.70;1.60;;;;;;;19.56;63.94;96928.75;10386942;28;20057;-46
2022/08/23 09:18:09;;;;;;;1.80;1.70;;;;;;;19.57;63.88;96934.94;10386650;28;20045;-47
2022/08/23 09:23:48;;;;;;;1.90;1.80;;;;;;;19.58;63.99;96933.81;10413314;28;20439;-51
2022/08/23 09:29:28;;;;;;;1.95;1.85;;;;;;;19.57;64.13;96937.66;10405919;28;20049;-46
2022/08/23 09:34:48;;;;;;;4.68;4.28;;;;;;;19.56;64.43;96938.75;10399892;28;20049;-48
2022/08/23 09:40:18;;;;;;;5.68;4.43;;;;;;;19.55;64.48;96940.66;10387255;28;20054;-48
2022/08/23 09:45:59;;;;;;;5.72;5.22;;;;;;;19.54;64.65;96941.81;10399178;28;20523;-47
2022/08/23 09:51:31;;;;;;;9.27;8.38;;;;;;;19.54;64.63;96943.69;10399187;28;20049;-47
2022/08/23 09:56:54;;;;;;;10.07;9.07;;;;;;;19.52;65.17;96943.22;10411381;28;20056;-48
2022/08/23 10:02:23;;;;;;;10.02;9.13;;;;;;;19.49;65.32;96947.34;10390999;28;20037;-47
2022/08/23 10:07:44;;;;;;;;;;;;;;;19.47;65.75;96946.09;10385815;28;20072;-46
2022/08/23 10:13:09;;;;;;;10.48;9.43;;;;;;;19.44;65.53;96954.84;10398660;28;20376;-48
2022/08/23 10:18:41;;;;;;;10.98;9.63;;;;;;;19.43;65.60;96951.34;10398935;28;20079;-48
2022/08/23 10:24:21;;;;;;;11.88;10.70;;;;;;;19.42;65.89;96955.16;10400460;28;20421;-46
2022/08/23 10:29:47;;;;;;;11.60;10.40;;;;;;;19.41;65.90;96952.78;10404961;28;20053;-47
2022/08/23 10:35:30;;;;;;;11.65;10.32;;;;;;;19.42;65.95;96955.16;10406399;28;20049;-48
2022/08/23 10:41:02;;;;;;;12.32;11.05;;;;;;;19.43;66.14;96953.25;10405815;28;20057;-46
2022/08/23 10:46:22;;;;;;;12.27;11.02;;;;;;;19.42;66.33;96955.16;10392378;28;20057;-47
2022/08/23 10:51:44;;;;;;;13.35;11.95;;;;;;;19.41;66.35;96958.19;10399848;28;20091;-46
2022/08/23 10:57:05;;;;;;;14.07;12.65;;;;;;;19.41;66.50;96958.97;10386935;28;20049;-48
2022/08/23 11:02:33;;;;;;;14.55;13.05;;;;;;;19.41;66.62;96967.09;10404484;28;20053;-47
2022/08/23 11:08:29;;;;;;;14.60;13.07;;;;;;;19.40;66.71;96978.97;10410105;28;20554;-47
2022/08/23 11:13:51;;;;;;;15.38;12.93;;;;;;;19.40;66.81;96984.38;10405400;28;20076;-47
2022/08/23 11:19:14;;;;;;;14.73;13.18;;;;;;;19.39;66.88;96987.44;10375103;28;20094;-47
2022/08/23 11:24:49;;;;;;;14.05;12.55;;;;;;;19.40;67.06;96984.38;10403985;28;20113;-48
2022/08/23 11:30:30;;;;;;;14.50;12.52;;;;;;;19.39;67.13;96990.91;10404297;28;20054;-46
2022/08/23 11:36:16;;;;;;;13.50;12.07;;;;;;;19.38;67.22;96985.81;10401608;28;20064;-46
2022/08/23 11:41:55;;;;;;;13.30;11.85;;;;;;;19.39;67.31;96987.44;10402162;28;20092;-47
2022/08/23 11:47:27;;;;;;;12.88;11.60;;;;;;;19.37;67.27;96990.44;10404284;28;20048;-45
2022/08/23 11:52:53;;;;;;;;;;;;;;;19.37;67.54;96995.84;10419124;28;20132;-48
2022/08/23 11:58:15;;;;;;;12.82;11.60;;;;;;;19.35;67.37;96998.06;10418030;28;19921;-49
2022/08/23 12:03:50;;;;;;;13.23;11.75;;;;;;;19.34;67.47;97002.66;10431500;28;20782;-48
2022/08/23 12:09:12;;;;;;;12.65;10.95;;;;;;;19.34;67.60;97002.66;10405765;28;20100;-48
2022/08/23 12:14:44;;;;;;;12.25;10.98;;;;;;;19.35;67.60;97011.56;10402870;28;20057;-45
2022/08/23 12:20:05;;;;;;;13.00;11.65;;;;;;;19.32;67.80;97010.28;10415034;28;20053;-46
2022/08/23 12:25:25;;;;;;;12.63;11.32;;;;;;;19.34;67.85;97012.69;10416975;28;20055;-47
2022/08/23 12:30:55;;;;;;;13.35;10.77;;;;;;;19.34;67.94;97007.28;10417335;28;20041;-47
2022/08/23 12:36:34;;;;;;;12.55;10.68;;;;;;;19.32;68.14;97010.28;10417390;28;20046;-47
2022/08/23 12:42:14;;;;;;;12.40;10.57;;;;;;;19.34;68.12;97013.47;10404953;28;20057;-49
2022/08/23 12:47:34;;;;;;;11.65;10.45;;;;;;;19.33;68.54;97005.69;10401991;28;20099;-48
2022/08/23 12:53:02;;;;;;;13.05;10.45;;;;;;;19.34;68.25;97012.69;10415747;28;20107;-47
2022/08/23 12:58:27;;;;;;;12.15;10.68;;;;;;;19.33;68.42;97006.50;10411974;28;20056;-46
2022/08/23 13:03:51;;;;;;;12.45;10.65;;;;;;;19.33;68.24;97006.50;10401086;28;20053;-48
2022/08/23 13:09:18;;;;;;;12.82;11.15;;;;;;;19.32;68.36;97017.59;10400572;28;20497;-46
2022/08/23 13:14:51;;;;;;;12.55;10.88;;;;;;;19.32;68.34;97013.00;10400940;28;20062;-48
2022/08/23 13:20:20;;;;;;;13.10;11.55;;;;;;;19.32;68.22;97017.59;10414841;28;20049;-47
2022/08/23 13:25:41;;;;;;;12.90;11.52;;;;;;;19.31;68.28;97011.41;10405490;28;20053;-47
2022/08/23 13:31:04;;;;;;;13.48;12.07;;;;;;;19.32;68.38;97017.59;10394137;28;20559;-45
2022/08/23 13:36:24;;;;;;;14.38;12.05;;;;;;;19.31;68.47;97024.13;10414918;28;20053;-46
2022/08/23 13:41:43;;;;;;;15.95;12.57;;;;;;;19.31;68.46;97019.53;10399170;28;20061;-49
2022/08/23 13:47:04;;;;;;;14.55;12.65;;;;;;;19.30;68.57;97022.53;10414813;28;20060;-47
2022/08/23 13:52:24;;;;;;;13.45;12.05;;;;;;;19.29;68.73;97024.44;10399587;28;20054;-48
2022/08/23 13:57:43;;;;;;;13.75;12.02;;;;;;;19.29;68.77;97018.25;10412921;28;20053;-47
2022/08/23 14:03:03;;;;;;;13.93;12.30;;;;;;;19.29;68.83;97020.97;10403297;28;20046;-48
2022/08/23 14:08:22;;;;;;;15.07;11.52;;;;;;;19.29;68.75;97029.06;10399363;28;20053;-49
2022/08/23 14:13:43;;;;;;;11.52;10.05;;;;;;;19.30;68.46;97017.91;10427138;28;20452;-48
2022/08/23 14:19:09;;;;;;;9.57;8.68;;;;;;;19.31;68.03;97018.72;10401766;28;20053;-50
2022/08/23 14:24:28;;;;;;;9.45;8.55;;;;;;;19.32;67.61;97021.09;10413823;28;20054;-50
2022/08/23 14:29:47;;;;;;;10.27;8.90;;;;;;;19.32;67.41;97023.78;10412984;28;20413;-48
2022/08/23 14:35:07;;;;;;;10.50;8.85;;;;;;;19.33;67.19;97027.31;10426495;28;20037;-47
2022/08/23 14:40:27;;;;;;;8.35;7.65;;;;;;;19.32;66.98;97029.19;10412878;28;20053;-47
2022/08/23 14:45:48;;;;;;;9.40;8.60;;;;;;;19.34;66.98;97024.28;10413251;28;20050;-47
2022/08/23 14:51:20;;;;;;;9.65;8.75;;;;;;;19.34;66.78;97031.59;10426588;28;20052;-49
2022/08/23 14:56:40;;;;;;;8.90;8.10;;;;;;;19.33;66.75;97032.72;10405285;28;20133;-47
2022/08/23 15:01:59;;;;;;;9.77;8.82;;;;;;;19.33;66.62;97035.41;10407695;28;20060;-48
2022/08/23 15:07:19;;;;;;;9.20;8.30;;;;;;;19.34;66.48;97031.59;10413160;28;20071;-46
2022/08/23 15:12:38;;;;;;;8.95;8.10;;;;;;;19.34;66.56;97031.59;10413917;28;20053;-48
2022/08/23 15:18:01;;;;;;;8.57;7.78;;;;;;;19.33;66.43;97028.09;10420202;28;20038;-49
2022/08/23 15:23:21;;;;;;;8.32;7.63;;;;;;;19.34;66.53;97028.88;10420057;28;20049;-48
2022/08/23 15:28:40;;;;;;;8.80;7.90;;;;;;;19.33;66.48;97033.50;10410961;28;20050;-47
2022/08/23 15:34:00;;;;;;;7.97;7.30;;;;;;;19.35;66.32;97036.69;10419738;28;20409;-48
2022/08/23 15:39:19;;;;;;;8.98;8.18;;;;;;;19.35;66.73;97038.59;10418871;28;20060;-50
2022/08/23 15:44:38;;;;;;;10.85;9.75;;;;;;;19.34;67.49;97037.00;10431148;28;20048;-48
2022/08/23 15:49:58;;;;;;;10.13;9.10;;;;;;;19.35;67.92;97038.59;10408197;28;20103;-48
2022/08/23 15:55:18;;;;;;;11.40;10.20;;;;;;;19.34;68.28;97034.28;10432079;28;20424;-48
2022/08/23 16:00:38;;;;;;;10.60;9.63;;;;;;;19.32;68.45;97028.41;10423056;28;20069;-49
2022/08/23 16:05:57;;;;;;;10.88;9.32;;;;;;;19.31;68.65;97029.53;10418519;28;20056;-50
2022/08/23 16:11:18;;;;;;;10.07;9.10;;;;;;;19.30;68.72;97027.94;10418051;28;20061;-48
2022/08/23 16:16:38;;;;;;;10.77;9.77;;;;;;;19.31;68.94;97034.94;10418281;28;20060;-49
2022/08/23 16:21:58;;;;;;;10.38;9.30;;;;;;;19.28;69.03;97032.84;10417573;28;20119;-48
2022/08/23 16:27:18;;;;;;;12.23;9.95;;;;;;;19.28;69.15;97039.03;10395800;28;20054;-49
2022/08/23 16:32:38;;;;;;;9.73;8.82;;;;;;;19.28;69.13;97036.34;10417407;28;20061;-49
2022/08/23 16:37:57;;;;;;;10.00;9.07;;;;;;;19.28;69.21;97030.94;10416366;28;20054;-49
2022/08/23 16:43:16;;;;;;;10.93;9.02;;;;;;;19.27;69.21;97039.38;10430169;28;20401;-48
2022/08/23 16:48:37;;;;;;;11.02;8.77;;;;;;;19.27;69.43;97028.59;10421119;28;20580;-48
2022/08/23 16:53:57;;;;;;;9.73;8.82;;;;;;;19.26;69.44;97037.78;10416683;28;20053;-48
2022/08/23 16:59:17;;;;;;;10.38;9.30;;;;;;;19.26;69.56;97043.19;10407337;28;20137;-48
2022/08/23 17:04:37;;;;;;;10.35;8.93;;;;;;;19.25;69.53;97053.19;10418984;28;20461;-50
2022/08/23 17:09:56;;;;;;;9.95;8.93;;;;;;;19.25;69.67;97052.38;10415325;28;20497;-48
2022/08/23 17:15:26;;;;;;;10.27;9.20;;;;;;;19.24;69.53;97057.00;10428810;28;20057;-48
2022/08/23 17:20:45;;;;;;;9.57;8.68;;;;;;;19.26;69.60;97059.38;10415453;28;20046;-47
2022/08/23 17:26:05;;;;;;;9.55;8.55;;;;;;;19.24;69.63;97073.19;10414689;28;20053;-49
2022/08/23 17:31:25;;;;;;;10.35;9.15;;;;;;;19.24;69.50;97069.72;10427900;28;20512;-48
2022/08/23 17:36:46;;;;;;;10.00;8.20;;;;;;;19.24;69.67;97070.50;10413982;28;20049;-48
2022/08/23 17:42:07;;;;;;;10.00;8.68;;;;;;;19.25;69.73;97076.69;10413997;28;20049;-47
2022/08/23 17:47:27;;;;;;;11.50;8.45;;;;;;;19.23;69.79;97077.03;10414784;28;20049;-47
2022/08/23 17:52:47;;;;;;;10.23;9.23;;;;;;;19.24;69.88;97080.53;10413801;28;20057;-50
2022/08/23 17:58:07;;;;;;;10.55;8.95;;;;;;;19.23;69.91;97092.41;10394631;28;20041;-50
2022/08/23 18:03:29;;;;;;;10.68;8.77;;;;;;;19.22;69.91;97097.03;10414342;28;20073;-46
2022/08/23 18:08:49;;;;;;;10.48;9.27;;;;;;;19.23;69.88;97097.81;10414480;28;20049;-48
2022/08/23 18:14:08;;;;;;;10.38;9.27;;;;;;;19.22;69.99;97104.34;10414147;28;20060;-49
2022/08/23 18:19:28;;;;;;;10.77;9.00;;;;;;;19.22;70.06;97115.16;10414008;28;20076;-48
2022/08/23 18:24:48;;;;;;;11.18;8.75;;;;;;;19.21;70.01;97114.38;10413655;28;20054;-48
2022/08/23 18:30:08;;;;;;;10.35;9.20;;;;;;;19.21;70.04;97124.34;10413626;28;20053;-48
2022/08/23 18:35:29;;;;;;;9.60;8.60;;;;;;;19.20;70.06;97130.88;10403316;28;20049;-49
2022/08/23 18:40:49;;;;;;;9.93;8.93;;;;;;;19.19;70.07;97130.09;10412954;28;20403;-47
2022/08/23 18:46:08;;;;;;;9.88;8.88;;;;;;;19.21;70.06;97143.25;10413109;28;20523;-48
2022/08/23 18:51:29;;;;;;;9.57;8.68;;;;;;;19.20;70.14;97152.47;10420065;28;20497;-48
2022/08/23 18:56:49;;;;;;;10.90;9.32;;;;;;;19.19;70.19;97151.69;10409897;28;20045;-47
2022/08/23 19:02:09;;;;;;;10.35;9.20;;;;;;;19.19;70.04;97164.38;10420891;28;20191;-47
2022/08/23 19:07:28;;;;;;;9.68;8.60;;;;;;;19.19;70.15;97164.38;10433655;28;20500;-48
2022/08/23 19:12:49;;;;;;;10.38;8.55;;;;;;;19.17;70.29;97160.09;10418961;28;20042;-48
2022/08/23 19:18:09;;;;;;;9.55;8.65;;;;;;;19.17;70.23;97170.13;10405321;28;20049;-48
2022/08/23 19:23:30;;;;;;;9.27;8.25;;;;;;;19.17;70.13;97176.31;10420077;28;20072;-46
2022/08/23 19:28:50;;;;;;;7.15;6.47;;;;;;;19.18;69.66;97174.41;10419972;28;20416;-47
2022/08/23 19:34:10;;;;;;;5.90;5.40;;;;;;;19.19;69.20;97180.59;10419747;28;20057;-46
2022/08/23 19:39:29;;;;;;;5.93;5.32;;;;;;;19.20;69.06;97174.09;10418862;28;20563;-49
2022/08/23 19:44:49;;;;;;;5.78;5.28;;;;;;;19.19;68.70;97177.88;10432224;28;20041;-47
2022/08/23 19:50:09;;;;;;;6.00;5.40;;;;;;;19.20;68.61;97182.97;10418370;28;20045;-49
2022/08/23 19:55:32;;;;;;;8.82;5.43;;;;;;;19.21;68.42;97189.16;10418465;28;20523;-49
2022/08/23 20:00:51;;;;;;;6.15;5.65;;;;;;;19.20;68.25;97182.97;10407851;28;20139;-48
2022/08/23 20:06:11;;;;;;;6.03;5.47;;;;;;;19.20;68.23;97180.28;10424188;28;20037;-49
2022/08/23 20:11:31;;;;;;;5.88;5.38;;;;;;;19.21;68.01;97179.19;10417864;28;20508;-48
2022/08/23 20:16:51;;;;;;;5.75;5.25;;;;;;;19.21;67.98;97189.16;10417455;28;20443;-49
2022/08/23 20:27:49;;;;;;;5.47;5.00;;;;;;;19.21;67.88;97183.78;10430729;28;20049;-47
2022/08/23 20:33:08;;;;;;;5.60;5.10;;;;;;;19.20;67.77;97187.59;10422716;28;20046;-48
2022/08/23 20:38:30;;;;;;;5.55;5.05;;;;;;;19.21;67.72;97189.16;10404157;28;20049;-47
2022/08/23 20:43:49;;;;;;;5.70;5.20;;;;;;;19.20;67.70;97201.88;10416903;28;20092;-48
2022/08/23 20:49:09;;;;;;;6.13;5.55;;;;;;;19.20;67.68;97195.69;10416534;28;20055;-49
2022/08/23 20:54:29;;;;;;;5.15;4.75;;;;;;;19.20;67.58;97195.69;10416390;28;20057;-48
2022/08/23 20:59:49;;;;;;;5.18;4.72;;;;;;;19.20;67.55;97207.28;10401363;28;20424;-49
2022/08/23 21:05:08;;;;;;;5.55;5.05;;;;;;;19.21;67.65;97202.69;10416351;28;20115;-48
2022/08/23 21:10:28;;;;;;;5.53;5.03;;;;;;;19.20;67.64;97193.78;10415387;28;20123;-49
2022/08/23 21:15:48;;;;;;;8.48;5.35;;;;;;;19.21;67.59;97191.88;10403728;28;20049;-48
2022/08/23 21:21:08;;;;;;;5.28;4.82;;;;;;;19.20;67.61;97196.50;10415567;28;20091;-46
2022/08/23 21:26:30;;;;;;;5.60;5.15;;;;;;;19.20;67.48;97187.59;10415442;28;20053;-49
2022/08/23 21:31:49;;;;;;;5.20;4.80;;;;;;;19.20;67.54;97188.38;10413582;28;20053;-46
2022/08/23 21:37:08;;;;;;;5.45;4.95;;;;;;;19.19;67.55;97189.50;10414918;28;20091;-49
2022/08/23 21:42:29;;;;;;;5.93;5.10;;;;;;;19.21;67.42;97186.47;10414184;28;20076;-47
2022/08/23 21:47:48;;;;;;;5.25;4.43;;;;;;;19.20;67.51;97182.19;10414084;28;20052;-48
2022/08/23 21:53:08;;;;;;;5.20;4.75;;;;;;;19.19;67.43;97176.00;10427490;28;20033;-47
2022/08/23 21:58:28;;;;;;;4.95;4.53;;;;;;;19.19;67.46;97176.00;10405014;28;20072;-48
2022/08/23 22:03:47;;;;;;;5.40;4.90;;;;;;;19.20;67.47;97174.09;10427694;28;20049;-47
2022/08/23 22:09:09;;;;;;;5.20;4.72;;;;;;;19.19;67.50;97170.59;10427077;28;20511;-49
2022/08/23 22:14:30;;;;;;;5.22;4.80;;;;;;;19.20;67.41;97163.28;10413975;28;20049;-49
2022/08/23 22:19:50;;;;;;;5.25;4.75;;;;;;;19.20;67.35;97174.88;10413792;28;20404;-47
2022/08/23 22:25:09;;;;;;;5.25;4.75;;;;;;;19.19;67.42;97167.91;10419242;28;20075;-49
2022/08/23 22:30:28;;;;;;;5.22;4.80;;;;;;;19.18;67.33;97163.59;10406957;28;20068;-48
2022/08/23 22:35:48;;;;;;;5.40;4.93;;;;;;;19.20;67.29;97166.00;10422257;28;20057;-47
2022/08/23 22:41:08;;;;;;;4.80;4.40;;;;;;;19.19;67.48;97161.69;10425545;28;20107;-49
2022/08/23 22:46:29;;;;;;;5.40;4.90;;;;;;;19.20;67.39;97166.00;10420761;28;20424;-47
2022/08/23 22:51:49;;;;;;;4.90;4.50;;;;;;;19.19;67.36;97165.19;10405864;28;20056;-50
2022/08/23 22:57:08;;;;;;;5.22;4.72;;;;;;;19.19;67.24;97161.69;10416083;28;20050;-48
2022/08/23 23:02:28;;;;;;;5.20;4.80;;;;;;;19.19;67.35;97167.09;10432816;28;20041;-47
2022/08/23 23:13:28;;;;;;;5.00;4.60;;;;;;;19.19;67.37;97158.97;10433546;28;20045;-48
2022/08/23 23:24:30;;;;;;;4.93;4.53;;;;;;;19.18;67.37;97163.59;10420640;28;20061;-48
2022/08/23 23:29:49;;;;;;;5.13;4.70;;;;;;;19.18;67.47;97166.28;10432770;28;20052;-47
2022/08/23 23:35:09;;;;;;;5.35;4.85;;;;;;;19.19;67.40;97172.47;10419363;28;20054;-47
2022/08/23 23:40:28;;;;;;;5.10;4.70;;;;;;;19.19;67.24;97164.38;10404117;28;20080;-48
2022/08/23 23:45:48;;;;;;;4.63;4.30;;;;;;;19.17;67.31;97162.81;10419461;28;20056;-48
2022/08/23 23:51:11;;;;;;;4.65;4.25;;;;;;;19.17;67.40;97157.41;10419280;28;20060;-47
2022/08/23 23:56:31;;;;;;;4.45;4.05;;;;;;;19.17;67.28;97154.69;10408224;28;20053;-49
